Date,TemperatureHighF,TemperatureAvgF,TemperatureLowF,DewpointHighF,DewpointAvgF,DewpointLowF,HumidityHigh,HumidityAvg,HumidityLow,PressureMaxIn,PressureMinIn,WindSpeedMaxMPH,WindSpeedAvgMPH,GustSpeedMaxMPH,PrecipitationSumIn
2013-4-1,59,44,33,46,32,6,88,65,28,29.86,29.54,8,2,11,0.01
2013-4-2,42,34,28,14,8,2,52,34,22,30.02,29.86,11,3,14,0.00
2013-4-3,38,31,29,13,10,3,48,40,28,30.08,30.01,8,3,11,0.00
2013-4-4,53,44,37,26,23,16,62,44,23,30.09,30.02,4,1,6,0.00
2013-4-5,62,46,36,27,21,13,65,39,21,30.02,29.65,4,0,7,0.00
2013-4-6,50,39,30,20,12,0,55,34,21,30.28,29.95,5,1,9,0.00
2013-4-7,58,45,32,39,30,15,82,57,29,30.27,29.94,7,1,11,0.00
2013-4-8,71,54,36,43,38,31,88,59,25,30.04,29.92,4,1,7,0.00
2013-4-9,77,63,51,50,43,35,84,53,26,29.95,29.85,6,0,8,0.00
2013-4-10,66,56,49,55,49,40,94,79,55,29.93,29.76,4,0,6,0.26
2013-4-11,60,49,39,54,41,29,96,75,53,30.05,29.77,3,0,4,0.02
2013-4-12,44,40,38,39,35,30,95,84,65,30.05,29.71,9,1,14,0.27
2013-4-13,54,45,37,40,35,33,97,72,46,29.91,29.73,2,0,4,0.03
2013-4-14,54,45,35,36,29,24,79,54,33,30.20,29.91,7,2,14,0.01
2013-4-15,61,46,33,36,30,25,76,55,32,30.34,30.20,3,0,6,0.00
2013-4-16,66,53,43,52,44,32,92,72,57,30.34,30.04,6,1,11,0.02
2013-4-17,68,56,44,53,40,32,93,60,29,30.28,30.07,2,0,4,0.05
2013-4-18,63,51,41,48,39,33,86,66,37,30.32,30.07,7,2,11,0.00
2013-4-19,71,62,52,62,57,48,97,86,69,30.07,29.58,6,1,11,0.36
2013-4-20,61,50,41,58,34,22,94,60,29,30.28,29.63,6,1,8,0.28
2013-4-21,53,41,30,26,20,16,66,45,25,30.60,30.27,4,0,9,0.00
2013-4-22,59,44,31,35,28,22,85,56,27,30.65,30.48,6,1,13,0.00
2013-4-23,51,42,33,40,34,27,85,76,65,30.49,30.09,2,0,4,0.00
2013-4-24,73,54,35,50,43,32,95,70,41,30.09,29.75,4,0,7,0.00
2013-4-25,65,53,40,50,31,21,88,47,21,30.25,29.79,6,1,10,0.00
2013-4-26,64,50,33,38,30,25,79,50,24,30.40,30.24,2,0,5,0.00
2013-4-27,69,53,35,35,28,20,75,44,16,30.42,30.22,1,0,3,0.00
2013-4-28,74,55,38,44,35,29,84,50,24,30.29,30.13,4,0,7,0.00
2013-4-29,57,54,51,48,43,32,84,68,45,30.20,30.15,4,1,7,0.01
2013-4-30,71,58,49,44,36,23,78,48,17,30.31,30.18,3,0,4,0.00